sensor_id;sensor_type;location;lat;lon;timestamp;P1;durP1;ratioP1;P2;durP2;ratioP2
23573;SDS011;11965;53.640;10.050;2023-04-01T00:01:57;6.96;;;6.96;;
23573;SDS011;11965;53.640;10.050;2023-04-01T00:04:24;7.04;;;7.04;;
23573;SDS011;11965;53.640;10.050;2023-04-01T00:06:51;6.83;;;6.83;;
23573;SDS011;11965;53.640;10.050;2023-04-01T00:09:18;6.70;;;6.70;;
23573;SDS011;11965;53.640;10.050;2023-04-01T00:11:45;6.51;;;6.51;;
23573;SDS011;11965;53.640;10.050;2023-04-01T00:14:12;6.98;;;6.98;;
23573;SDS011;11965;53.640;10.050;2023-04-01T00:16:39;6.64;;;6.64;;
23573;SDS011;11965;53.640;10.050;2023-04-01T00:19:07;7.00;;;7.00;;
23573;SDS011;11965;53.640;10.050;2023-04-01T00:21:34;7.32;;;7.32;;
23573;SDS011;11965;53.640;10.050;2023-04-01T00:24:02;7.36;;;7.36;;
23573;SDS011;11965;53.640;10.050;2023-04-01T00:26:29;7.10;;;7.10;;
23573;SDS011;11965;53.640;10.050;2023-04-01T00:28:55;7.16;;;7.16;;
23573;SDS011;11965;53.640;10.050;2023-04-01T00:31:22;7.21;;;7.21;;
23573;SDS011;11965;53.640;10.050;2023-04-01T00:33:51;6.97;;;6.97;;
23573;SDS011;11965;53.640;10.050;2023-04-01T00:36:20;7.12;;;7.12;;
23573;SDS011;11965;53.640;10.050;2023-04-01T00:38:48;7.17;;;7.17;;
23573;SDS011;11965;53.640;10.050;2023-04-01T00:41:17;7.12;;;7.12;;
23573;SDS011;11965;53.640;10.050;2023-04-01T00:43:47;6.84;;;6.84;;
23573;SDS011;11965;53.640;10.050;2023-04-01T00:46:20;6.85;;;6.85;;
23573;SDS011;11965;53.640;10.050;2023-04-01T00:48:48;7.09;;;7.09;;
23573;SDS011;11965;53.640;10.050;2023-04-01T00:51:21;7.16;;;7.16;;
23573;SDS011;11965;53.640;10.050;2023-04-01T00:53:52;7.49;;;7.48;;
23573;SDS011;11965;53.640;10.050;2023-04-01T00:56:24;7.06;;;7.06;;
23573;SDS011;11965;53.640;10.050;2023-04-01T00:58:54;7.21;;;7.21;;
23573;SDS011;11965;53.640;10.050;2023-04-01T01:01:26;7.05;;;7.04;;
23573;SDS011;11965;53.640;10.050;2023-04-01T01:03:56;6.54;;;6.52;;
23573;SDS011;11965;53.640;10.050;2023-04-01T01:06:26;6.92;;;6.92;;
23573;SDS011;11965;53.640;10.050;2023-04-01T01:09:10;6.63;;;6.63;;
23573;SDS011;11965;53.640;10.050;2023-04-01T01:11:54;6.89;;;6.89;;
23573;SDS011;11965;53.640;10.050;2023-04-01T01:14:32;6.98;;;6.98;;
23573;SDS011;11965;53.640;10.050;2023-04-01T01:17:11;6.69;;;6.69;;
23573;SDS011;11965;53.640;10.050;2023-04-01T01:20:01;7.56;;;7.56;;
23573;SDS011;11965;53.640;10.050;2023-04-01T01:22:54;7.09;;;7.09;;
23573;SDS011;11965;53.640;10.050;2023-04-01T01:25:42;7.32;;;7.32;;
23573;SDS011;11965;53.640;10.050;2023-04-01T01:28:26;6.87;;;6.87;;
23573;SDS011;11965;53.640;10.050;2023-04-01T01:31:12;7.13;;;7.13;;
23573;SDS011;11965;53.640;10.050;2023-04-01T01:33:56;6.81;;;6.81;;
23573;SDS011;11965;53.640;10.050;2023-04-01T01:36:36;6.65;;;6.65;;
23573;SDS011;11965;53.640;10.050;2023-04-01T01:39:08;6.63;;;6.63;;
23573;SDS011;11965;53.640;10.050;2023-04-01T01:41:37;7.17;;;7.17;;
23573;SDS011;11965;53.640;10.050;2023-04-01T01:44:10;7.24;;;7.24;;
23573;SDS011;11965;53.640;10.050;2023-04-01T01:46:40;7.21;;;7.21;;
23573;SDS011;11965;53.640;10.050;2023-04-01T01:49:11;7.30;;;7.30;;
23573;SDS011;11965;53.640;10.050;2023-04-01T01:51:42;6.97;;;6.97;;
23573;SDS011;11965;53.640;10.050;2023-04-01T01:54:11;7.47;;;7.47;;
23573;SDS011;11965;53.640;10.050;2023-04-01T01:56:39;7.40;;;7.40;;
23573;SDS011;11965;53.640;10.050;2023-04-01T01:59:11;7.07;;;7.05;;
23573;SDS011;11965;53.640;10.050;2023-04-01T02:01:45;6.93;;;6.92;;
23573;SDS011;11965;53.640;10.050;2023-04-01T02:04:16;7.15;;;7.15;;
23573;SDS011;11965;53.640;10.050;2023-04-01T02:06:50;7.07;;;7.07;;
23573;SDS011;11965;53.640;10.050;2023-04-01T02:09:23;6.94;;;6.94;;
23573;SDS011;11965;53.640;10.050;2023-04-01T02:11:50;7.45;;;7.45;;
23573;SDS011;11965;53.640;10.050;2023-04-01T02:14:22;7.18;;;7.18;;
23573;SDS011;11965;53.640;10.050;2023-04-01T02:16:54;7.36;;;7.36;;
23573;SDS011;11965;53.640;10.050;2023-04-01T02:19:27;6.94;;;6.94;;
23573;SDS011;11965;53.640;10.050;2023-04-01T02:22:02;6.85;;;6.85;;
23573;SDS011;11965;53.640;10.050;2023-04-01T02:24:33;7.11;;;7.11;;
23573;SDS011;11965;53.640;10.050;2023-04-01T02:27:04;7.48;;;7.48;;
23573;SDS011;11965;53.640;10.050;2023-04-01T02:29:31;6.90;;;6.90;;
23573;SDS011;11965;53.640;10.050;2023-04-01T02:31:58;7.21;;;7.21;;
23573;SDS011;11965;53.640;10.050;2023-04-01T02:34:27;7.21;;;7.18;;
23573;SDS011;11965;53.640;10.050;2023-04-01T02:36:54;7.44;;;7.44;;
23573;SDS011;11965;53.640;10.050;2023-04-01T02:39:24;7.17;;;7.17;;
23573;SDS011;11965;53.640;10.050;2023-04-01T02:41:52;7.31;;;7.31;;
23573;SDS011;11965;53.640;10.050;2023-04-01T02:44:19;6.72;;;6.72;;
23573;SDS011;11965;53.640;10.050;2023-04-01T02:46:46;6.76;;;6.76;;
23573;SDS011;11965;53.640;10.050;2023-04-01T02:49:13;6.75;;;6.75;;
23573;SDS011;11965;53.640;10.050;2023-04-01T02:51:40;6.92;;;6.92;;
23573;SDS011;11965;53.640;10.050;2023-04-01T02:54:07;7.23;;;7.23;;
23573;SDS011;11965;53.640;10.050;2023-04-01T02:56:35;6.61;;;6.61;;
23573;SDS011;11965;53.640;10.050;2023-04-01T02:59:02;6.49;;;6.49;;
23573;SDS011;11965;53.640;10.050;2023-04-01T03:01:29;7.01;;;7.01;;
23573;SDS011;11965;53.640;10.050;2023-04-01T03:03:56;6.91;;;6.91;;
23573;SDS011;11965;53.640;10.050;2023-04-01T03:06:23;7.31;;;7.31;;
23573;SDS011;11965;53.640;10.050;2023-04-01T03:08:50;7.43;;;7.43;;
23573;SDS011;11965;53.640;10.050;2023-04-01T03:11:17;6.86;;;6.86;;
23573;SDS011;11965;53.640;10.050;2023-04-01T03:13:46;6.94;;;6.94;;
23573;SDS011;11965;53.640;10.050;2023-04-01T03:16:14;7.00;;;7.00;;
23573;SDS011;11965;53.640;10.050;2023-04-01T03:18:41;7.32;;;7.32;;
23573;SDS011;11965;53.640;10.050;2023-04-01T03:21:12;7.41;;;7.41;;
23573;SDS011;11965;53.640;10.050;2023-04-01T03:23:41;7.79;;;7.78;;
23573;SDS011;11965;53.640;10.050;2023-04-01T03:26:08;7.57;;;7.49;;
23573;SDS011;11965;53.640;10.050;2023-04-01T03:28:35;7.76;;;7.69;;
23573;SDS011;11965;53.640;10.050;2023-04-01T03:31:03;7.82;;;7.82;;
23573;SDS011;11965;53.640;10.050;2023-04-01T03:33:37;7.56;;;7.56;;
23573;SDS011;11965;53.640;10.050;2023-04-01T03:36:04;7.79;;;7.79;;
23573;SDS011;11965;53.640;10.050;2023-04-01T03:38:32;7.97;;;7.97;;
23573;SDS011;11965;53.640;10.050;2023-04-01T03:40:59;7.76;;;7.76;;
23573;SDS011;11965;53.640;10.050;2023-04-01T03:43:26;7.86;;;7.86;;
23573;SDS011;11965;53.640;10.050;2023-04-01T03:45:53;7.75;;;7.75;;
23573;SDS011;11965;53.640;10.050;2023-04-01T03:48:24;7.44;;;7.44;;
23573;SDS011;11965;53.640;10.050;2023-04-01T03:50:51;7.68;;;7.68;;
23573;SDS011;11965;53.640;10.050;2023-04-01T03:53:18;7.71;;;7.71;;
23573;SDS011;11965;53.640;10.050;2023-04-01T03:55:46;7.74;;;7.74;;
23573;SDS011;11965;53.640;10.050;2023-04-01T03:58:14;7.75;;;7.75;;
23573;SDS011;11965;53.640;10.050;2023-04-01T04:00:41;8.10;;;8.10;;
23573;SDS011;11965;53.640;10.050;2023-04-01T04:03:09;8.37;;;8.31;;
23573;SDS011;11965;53.640;10.050;2023-04-01T04:05:40;8.48;;;8.48;;
23573;SDS011;11965;53.640;10.050;2023-04-01T04:08:14;8.45;;;8.45;;
23573;SDS011;11965;53.640;10.050;2023-04-01T04:10:40;8.22;;;8.22;;
23573;SDS011;11965;53.640;10.050;2023-04-01T04:13:08;8.03;;;8.03;;
23573;SDS011;11965;53.640;10.050;2023-04-01T04:15:39;8.26;;;8.26;;
23573;SDS011;11965;53.640;10.050;2023-04-01T04:18:06;7.73;;;7.73;;
23573;SDS011;11965;53.640;10.050;2023-04-01T04:20:33;7.82;;;7.82;;
23573;SDS011;11965;53.640;10.050;2023-04-01T04:23:02;8.12;;;8.12;;
23573;SDS011;11965;53.640;10.050;2023-04-01T04:25:30;8.21;;;8.21;;
23573;SDS011;11965;53.640;10.050;2023-04-01T04:27:57;8.65;;;8.65;;
23573;SDS011;11965;53.640;10.050;2023-04-01T04:30:24;8.06;;;8.06;;
23573;SDS011;11965;53.640;10.050;2023-04-01T04:32:51;8.07;;;8.07;;
23573;SDS011;11965;53.640;10.050;2023-04-01T04:35:18;7.59;;;7.59;;
23573;SDS011;11965;53.640;10.050;2023-04-01T04:37:45;7.95;;;7.95;;
23573;SDS011;11965;53.640;10.050;2023-04-01T04:40:14;8.00;;;8.00;;
23573;SDS011;11965;53.640;10.050;2023-04-01T04:42:41;8.15;;;8.15;;
23573;SDS011;11965;53.640;10.050;2023-04-01T04:45:11;8.29;;;8.29;;
23573;SDS011;11965;53.640;10.050;2023-04-01T04:47:43;8.38;;;8.38;;
23573;SDS011;11965;53.640;10.050;2023-04-01T04:50:11;8.23;;;8.23;;
23573;SDS011;11965;53.640;10.050;2023-04-01T04:52:39;5.45;;;5.45;;
23573;SDS011;11965;53.640;10.050;2023-04-01T04:55:06;2.42;;;2.42;;
23573;SDS011;11965;53.640;10.050;2023-04-01T04:57:35;1.84;;;1.84;;
23573;SDS011;11965;53.640;10.050;2023-04-01T05:00:02;1.56;;;1.56;;
23573;SDS011;11965;53.640;10.050;2023-04-01T05:03:02;1.42;;;1.42;;
23573;SDS011;11965;53.640;10.050;2023-04-01T05:05:30;1.46;;;1.44;;
23573;SDS011;11965;53.640;10.050;2023-04-01T05:07:57;1.66;;;1.63;;
23573;SDS011;11965;53.640;10.050;2023-04-01T05:10:24;1.75;;;1.75;;
23573;SDS011;11965;53.640;10.050;2023-04-01T05:12:52;1.56;;;1.56;;
23573;SDS011;11965;53.640;10.050;2023-04-01T05:15:21;1.61;;;1.61;;
23573;SDS011;11965;53.640;10.050;2023-04-01T05:17:49;1.45;;;1.45;;
23573;SDS011;11965;53.640;10.050;2023-04-01T05:20:16;1.51;;;1.51;;
23573;SDS011;11965;53.640;10.050;2023-04-01T05:22:43;1.58;;;1.58;;
23573;SDS011;11965;53.640;10.050;2023-04-01T05:25:11;1.56;;;1.56;;
23573;SDS011;11965;53.640;10.050;2023-04-01T05:27:37;1.69;;;1.69;;
23573;SDS011;11965;53.640;10.050;2023-04-01T05:30:06;1.41;;;1.41;;
23573;SDS011;11965;53.640;10.050;2023-04-01T05:32:42;1.43;;;1.43;;
23573;SDS011;11965;53.640;10.050;2023-04-01T05:35:10;1.23;;;1.23;;
23573;SDS011;11965;53.640;10.050;2023-04-01T05:37:37;1.39;;;1.39;;
23573;SDS011;11965;53.640;10.050;2023-04-01T05:40:04;1.47;;;1.47;;
23573;SDS011;11965;53.640;10.050;2023-04-01T05:42:32;1.39;;;1.39;;
23573;SDS011;11965;53.640;10.050;2023-04-01T05:44:59;1.32;;;1.32;;
23573;SDS011;11965;53.640;10.050;2023-04-01T05:47:51;1.43;;;1.43;;
23573;SDS011;11965;53.640;10.050;2023-04-01T05:50:18;1.23;;;1.23;;
23573;SDS011;11965;53.640;10.050;2023-04-01T05:52:45;1.37;;;1.37;;
23573;SDS011;11965;53.640;10.050;2023-04-01T05:55:12;1.41;;;1.41;;
23573;SDS011;11965;53.640;10.050;2023-04-01T05:57:39;1.43;;;1.43;;
23573;SDS011;11965;53.640;10.050;2023-04-01T06:00:07;1.30;;;1.30;;
23573;SDS011;11965;53.640;10.050;2023-04-01T06:02:40;1.50;;;1.50;;
23573;SDS011;11965;53.640;10.050;2023-04-01T06:05:13;1.40;;;1.40;;
23573;SDS011;11965;53.640;10.050;2023-04-01T06:07:44;1.40;;;1.40;;
23573;SDS011;11965;53.640;10.050;2023-04-01T06:10:13;1.48;;;1.48;;
23573;SDS011;11965;53.640;10.050;2023-04-01T06:12:45;1.45;;;1.45;;
23573;SDS011;11965;53.640;10.050;2023-04-01T06:15:32;1.64;;;1.64;;
23573;SDS011;11965;53.640;10.050;2023-04-01T06:18:34;1.39;;;1.39;;
23573;SDS011;11965;53.640;10.050;2023-04-01T06:27:08;1.54;;;1.54;;
23573;SDS011;11965;53.640;10.050;2023-04-01T06:29:53;1.37;;;1.37;;
23573;SDS011;11965;53.640;10.050;2023-04-01T06:32:46;1.37;;;1.37;;
23573;SDS011;11965;53.640;10.050;2023-04-01T06:35:46;1.42;;;1.42;;
23573;SDS011;11965;53.640;10.050;2023-04-01T06:38:43;1.40;;;1.40;;
23573;SDS011;11965;53.640;10.050;2023-04-01T06:41:33;1.37;;;1.37;;
23573;SDS011;11965;53.640;10.050;2023-04-01T06:44:19;1.41;;;1.41;;
23573;SDS011;11965;53.640;10.050;2023-04-01T06:47:18;1.07;;;1.07;;
23573;SDS011;11965;53.640;10.050;2023-04-01T06:50:18;1.00;;;1.00;;
23573;SDS011;11965;53.640;10.050;2023-04-01T06:53:12;0.95;;;0.95;;
23573;SDS011;11965;53.640;10.050;2023-04-01T06:55:55;1.03;;;1.03;;
23573;SDS011;11965;53.640;10.050;2023-04-01T06:58:39;1.09;;;1.09;;
23573;SDS011;11965;53.640;10.050;2023-04-01T07:01:14;1.13;;;1.13;;
23573;SDS011;11965;53.640;10.050;2023-04-01T07:03:48;1.08;;;1.08;;
23573;SDS011;11965;53.640;10.050;2023-04-01T07:06:24;1.15;;;1.15;;
23573;SDS011;11965;53.640;10.050;2023-04-01T07:08:58;1.10;;;1.10;;
23573;SDS011;11965;53.640;10.050;2023-04-01T07:11:51;1.01;;;1.01;;
23573;SDS011;11965;53.640;10.050;2023-04-01T07:14:46;0.96;;;0.96;;
23573;SDS011;11965;53.640;10.050;2023-04-01T07:17:20;1.05;;;1.05;;
23573;SDS011;11965;53.640;10.050;2023-04-01T07:19:52;0.86;;;0.86;;
23573;SDS011;11965;53.640;10.050;2023-04-01T07:22:29;0.94;;;0.94;;
23573;SDS011;11965;53.640;10.050;2023-04-01T07:25:18;0.94;;;0.94;;
23573;SDS011;11965;53.640;10.050;2023-04-01T07:28:02;1.00;;;1.00;;
23573;SDS011;11965;53.640;10.050;2023-04-01T07:30:38;1.12;;;1.12;;
23573;SDS011;11965;53.640;10.050;2023-04-01T07:33:19;1.22;;;1.22;;
23573;SDS011;11965;53.640;10.050;2023-04-01T07:35:56;1.32;;;1.32;;
23573;SDS011;11965;53.640;10.050;2023-04-01T07:38:32;1.23;;;1.23;;
23573;SDS011;11965;53.640;10.050;2023-04-01T07:41:24;1.33;;;1.33;;
23573;SDS011;11965;53.640;10.050;2023-04-01T07:44:04;1.40;;;1.40;;
23573;SDS011;11965;53.640;10.050;2023-04-01T07:46:53;1.11;;;1.11;;
23573;SDS011;11965;53.640;10.050;2023-04-01T07:49:37;1.26;;;1.26;;
23573;SDS011;11965;53.640;10.050;2023-04-01T07:52:18;1.39;;;1.39;;
23573;SDS011;11965;53.640;10.050;2023-04-01T07:55:03;1.34;;;1.34;;
23573;SDS011;11965;53.640;10.050;2023-04-01T07:57:41;1.28;;;1.28;;
23573;SDS011;11965;53.640;10.050;2023-04-01T08:00:17;1.28;;;1.28;;
23573;SDS011;11965;53.640;10.050;2023-04-01T08:03:12;1.26;;;1.26;;
23573;SDS011;11965;53.640;10.050;2023-04-01T08:05:57;1.52;;;1.52;;
23573;SDS011;11965;53.640;10.050;2023-04-01T08:08:49;1.28;;;1.28;;
23573;SDS011;11965;53.640;10.050;2023-04-01T08:11:50;1.48;;;1.48;;
23573;SDS011;11965;53.640;10.050;2023-04-01T08:14:50;1.15;;;1.15;;
23573;SDS011;11965;53.640;10.050;2023-04-01T08:17:46;1.21;;;1.21;;
23573;SDS011;11965;53.640;10.050;2023-04-01T08:20:28;1.30;;;1.30;;
23573;SDS011;11965;53.640;10.050;2023-04-01T08:23:05;1.12;;;1.12;;
23573;SDS011;11965;53.640;10.050;2023-04-01T08:25:42;0.88;;;0.88;;
23573;SDS011;11965;53.640;10.050;2023-04-01T08:28:16;1.16;;;1.16;;
23573;SDS011;11965;53.640;10.050;2023-04-01T08:30:52;1.17;;;1.17;;
23573;SDS011;11965;53.640;10.050;2023-04-01T08:33:25;1.15;;;1.15;;
23573;SDS011;11965;53.640;10.050;2023-04-01T08:36:05;0.92;;;0.92;;
23573;SDS011;11965;53.640;10.050;2023-04-01T08:38:38;0.98;;;0.98;;
23573;SDS011;11965;53.640;10.050;2023-04-01T08:41:18;1.19;;;1.19;;
23573;SDS011;11965;53.640;10.050;2023-04-01T08:44:23;1.22;;;1.22;;
23573;SDS011;11965;53.640;10.050;2023-04-01T08:50:17;1.20;;;1.20;;
23573;SDS011;11965;53.640;10.050;2023-04-01T08:53:17;1.00;;;1.00;;
23573;SDS011;11965;53.640;10.050;2023-04-01T08:56:02;1.12;;;1.12;;
23573;SDS011;11965;53.640;10.050;2023-04-01T08:58:48;1.10;;;1.10;;
23573;SDS011;11965;53.640;10.050;2023-04-01T09:01:42;1.00;;;1.00;;
23573;SDS011;11965;53.640;10.050;2023-04-01T09:07:51;1.21;;;1.21;;
23573;SDS011;11965;53.640;10.050;2023-04-01T09:10:35;1.11;;;1.11;;
23573;SDS011;11965;53.640;10.050;2023-04-01T09:20:39;1.20;;;1.20;;
23573;SDS011;11965;53.640;10.050;2023-04-01T09:23:29;1.02;;;1.02;;
23573;SDS011;11965;53.640;10.050;2023-04-01T09:26:18;1.02;;;1.02;;
23573;SDS011;11965;53.640;10.050;2023-04-01T09:29:16;1.00;;;1.00;;
23573;SDS011;11965;53.640;10.050;2023-04-01T09:32:00;1.13;;;1.13;;
23573;SDS011;11965;53.640;10.050;2023-04-01T09:34:54;1.03;;;1.03;;
23573;SDS011;11965;53.640;10.050;2023-04-01T09:37:34;1.06;;;1.06;;
23573;SDS011;11965;53.640;10.050;2023-04-01T09:40:15;1.12;;;1.12;;
23573;SDS011;11965;53.640;10.050;2023-04-01T09:42:53;1.24;;;1.24;;
23573;SDS011;11965;53.640;10.050;2023-04-01T09:45:42;1.05;;;1.05;;
23573;SDS011;11965;53.640;10.050;2023-04-01T09:48:26;1.03;;;1.03;;
23573;SDS011;11965;53.640;10.050;2023-04-01T09:51:17;1.00;;;0.99;;
23573;SDS011;11965;53.640;10.050;2023-04-01T09:54:01;1.11;;;1.11;;
23573;SDS011;11965;53.640;10.050;2023-04-01T09:57:03;1.14;;;1.14;;
23573;SDS011;11965;53.640;10.050;2023-04-01T10:00:16;0.96;;;0.96;;
23573;SDS011;11965;53.640;10.050;2023-04-01T10:09:50;1.14;;;1.14;;
23573;SDS011;11965;53.640;10.050;2023-04-01T10:16:22;0.98;;;0.98;;
23573;SDS011;11965;53.640;10.050;2023-04-01T10:22:08;0.77;;;0.77;;
23573;SDS011;11965;53.640;10.050;2023-04-01T10:28:00;0.79;;;0.79;;
23573;SDS011;11965;53.640;10.050;2023-04-01T10:34:20;0.75;;;0.75;;
23573;SDS011;11965;53.640;10.050;2023-04-01T10:37:28;0.61;;;0.61;;
23573;SDS011;11965;53.640;10.050;2023-04-01T10:40:36;0.68;;;0.68;;
23573;SDS011;11965;53.640;10.050;2023-04-01T10:43:50;0.85;;;0.85;;
23573;SDS011;11965;53.640;10.050;2023-04-01T10:52:43;1.00;;;1.00;;
23573;SDS011;11965;53.640;10.050;2023-04-01T10:56:09;0.93;;;0.93;;
23573;SDS011;11965;53.640;10.050;2023-04-01T10:59:25;0.92;;;0.92;;
23573;SDS011;11965;53.640;10.050;2023-04-01T11:15:54;1.52;;;1.52;;
23573;SDS011;11965;53.640;10.050;2023-04-01T11:18:59;1.62;;;1.62;;
23573;SDS011;11965;53.640;10.050;2023-04-01T11:21:50;1.65;;;1.65;;
23573;SDS011;11965;53.640;10.050;2023-04-01T11:24:58;1.91;;;1.91;;
23573;SDS011;11965;53.640;10.050;2023-04-01T11:31:17;2.03;;;2.03;;
23573;SDS011;11965;53.640;10.050;2023-04-01T11:34:07;2.52;;;2.52;;
23573;SDS011;11965;53.640;10.050;2023-04-01T11:36:56;2.56;;;2.56;;
23573;SDS011;11965;53.640;10.050;2023-04-01T11:39:50;2.60;;;2.60;;
23573;SDS011;11965;53.640;10.050;2023-04-01T11:42:53;3.21;;;3.21;;
23573;SDS011;11965;53.640;10.050;2023-04-01T11:46:07;3.52;;;3.52;;
23573;SDS011;11965;53.640;10.050;2023-04-01T11:48:40;3.78;;;3.78;;
23573;SDS011;11965;53.640;10.050;2023-04-01T11:51:43;4.03;;;4.03;;
23573;SDS011;11965;53.640;10.050;2023-04-01T11:54:31;4.12;;;4.12;;
23573;SDS011;11965;53.640;10.050;2023-04-01T11:57:22;3.81;;;3.81;;
23573;SDS011;11965;53.640;10.050;2023-04-01T12:00:14;3.96;;;3.96;;
23573;SDS011;11965;53.640;10.050;2023-04-01T12:03:02;3.77;;;3.77;;
23573;SDS011;11965;53.640;10.050;2023-04-01T12:05:48;3.85;;;3.85;;
23573;SDS011;11965;53.640;10.050;2023-04-01T12:08:27;4.18;;;4.18;;
23573;SDS011;11965;53.640;10.050;2023-04-01T12:11:09;3.97;;;3.97;;
23573;SDS011;11965;53.640;10.050;2023-04-01T12:13:49;4.09;;;4.09;;
23573;SDS011;11965;53.640;10.050;2023-04-01T12:16:29;4.10;;;4.10;;
23573;SDS011;11965;53.640;10.050;2023-04-01T12:19:11;4.94;;;4.94;;
23573;SDS011;11965;53.640;10.050;2023-04-01T12:21:50;4.81;;;4.81;;
23573;SDS011;11965;53.640;10.050;2023-04-01T12:24:40;4.62;;;4.62;;
23573;SDS011;11965;53.640;10.050;2023-04-01T12:27:26;4.57;;;4.57;;
23573;SDS011;11965;53.640;10.050;2023-04-01T12:30:14;4.59;;;4.59;;
23573;SDS011;11965;53.640;10.050;2023-04-01T12:33:00;5.18;;;5.18;;
23573;SDS011;11965;53.640;10.050;2023-04-01T12:35:52;5.32;;;5.32;;
23573;SDS011;11965;53.640;10.050;2023-04-01T12:38:36;5.17;;;5.17;;
23573;SDS011;11965;53.640;10.050;2023-04-01T12:41:21;4.51;;;4.51;;
23573;SDS011;11965;53.640;10.050;2023-04-01T12:44:03;4.81;;;4.81;;
23573;SDS011;11965;53.640;10.050;2023-04-01T12:49:55;6.78;;;6.78;;
23573;SDS011;11965;53.640;10.050;2023-04-01T12:52:44;6.84;;;6.84;;
23573;SDS011;11965;53.640;10.050;2023-04-01T12:55:37;7.08;;;7.08;;
23573;SDS011;11965;53.640;10.050;2023-04-01T12:58:25;7.13;;;7.13;;
23573;SDS011;11965;53.640;10.050;2023-04-01T13:01:34;6.73;;;6.73;;
23573;SDS011;11965;53.640;10.050;2023-04-01T13:10:19;6.54;;;6.54;;
23573;SDS011;11965;53.640;10.050;2023-04-01T13:13:08;5.78;;;5.78;;
23573;SDS011;11965;53.640;10.050;2023-04-01T13:16:00;5.43;;;5.43;;
23573;SDS011;11965;53.640;10.050;2023-04-01T13:18:39;5.24;;;5.24;;
23573;SDS011;11965;53.640;10.050;2023-04-01T13:21:20;5.06;;;5.06;;
23573;SDS011;11965;53.640;10.050;2023-04-01T13:24:02;4.95;;;4.95;;
23573;SDS011;11965;53.640;10.050;2023-04-01T13:26:53;5.02;;;5.02;;
23573;SDS011;11965;53.640;10.050;2023-04-01T13:29:30;5.79;;;5.79;;
23573;SDS011;11965;53.640;10.050;2023-04-01T13:32:10;5.83;;;5.83;;
23573;SDS011;11965;53.640;10.050;2023-04-01T13:35:02;6.11;;;6.11;;
23573;SDS011;11965;53.640;10.050;2023-04-01T13:37:45;6.03;;;6.03;;
23573;SDS011;11965;53.640;10.050;2023-04-01T13:40:27;6.02;;;6.02;;
23573;SDS011;11965;53.640;10.050;2023-04-01T13:43:07;6.06;;;6.06;;
23573;SDS011;11965;53.640;10.050;2023-04-01T13:45:48;5.71;;;5.71;;
23573;SDS011;11965;53.640;10.050;2023-04-01T13:48:58;5.56;;;5.56;;
23573;SDS011;11965;53.640;10.050;2023-04-01T13:54:41;5.84;;;5.84;;
23573;SDS011;11965;53.640;10.050;2023-04-01T13:57:33;5.86;;;5.86;;
23573;SDS011;11965;53.640;10.050;2023-04-01T14:00:25;6.39;;;6.39;;
23573;SDS011;11965;53.640;10.050;2023-04-01T14:09:14;6.42;;;6.42;;
23573;SDS011;11965;53.640;10.050;2023-04-01T14:11:57;6.28;;;6.28;;
23573;SDS011;11965;53.640;10.050;2023-04-01T14:14:39;6.60;;;6.60;;
23573;SDS011;11965;53.640;10.050;2023-04-01T14:17:29;7.39;;;7.39;;
23573;SDS011;11965;53.640;10.050;2023-04-01T14:20:23;6.37;;;6.36;;
23573;SDS011;11965;53.640;10.050;2023-04-01T14:23:05;6.76;;;6.76;;
23573;SDS011;11965;53.640;10.050;2023-04-01T14:26:03;6.45;;;6.45;;
23573;SDS011;11965;53.640;10.050;2023-04-01T14:29:02;7.00;;;7.00;;
23573;SDS011;11965;53.640;10.050;2023-04-01T14:31:52;7.04;;;7.04;;
23573;SDS011;11965;53.640;10.050;2023-04-01T14:34:39;6.80;;;6.80;;
23573;SDS011;11965;53.640;10.050;2023-04-01T14:37:30;7.08;;;7.07;;
23573;SDS011;11965;53.640;10.050;2023-04-01T14:40:22;6.88;;;6.88;;
23573;SDS011;11965;53.640;10.050;2023-04-01T14:42:58;6.93;;;6.93;;
23573;SDS011;11965;53.640;10.050;2023-04-01T14:48:49;7.12;;;7.10;;
23573;SDS011;11965;53.640;10.050;2023-04-01T14:51:21;6.58;;;6.56;;
23573;SDS011;11965;53.640;10.050;2023-04-01T14:54:03;6.65;;;6.65;;
23573;SDS011;11965;53.640;10.050;2023-04-01T14:56:39;6.65;;;6.65;;
23573;SDS011;11965;53.640;10.050;2023-04-01T14:59:15;6.35;;;6.35;;
23573;SDS011;11965;53.640;10.050;2023-04-01T15:01:55;6.04;;;6.04;;
23573;SDS011;11965;53.640;10.050;2023-04-01T15:07:45;5.99;;;5.99;;
23573;SDS011;11965;53.640;10.050;2023-04-01T15:10:41;6.64;;;6.63;;
23573;SDS011;11965;53.640;10.050;2023-04-01T15:13:41;7.36;;;7.33;;
23573;SDS011;11965;53.640;10.050;2023-04-01T15:16:39;6.63;;;6.63;;
23573;SDS011;11965;53.640;10.050;2023-04-01T15:19:19;6.65;;;6.65;;
23573;SDS011;11965;53.640;10.050;2023-04-01T15:22:04;6.59;;;6.59;;
23573;SDS011;11965;53.640;10.050;2023-04-01T15:24:56;6.73;;;6.73;;
23573;SDS011;11965;53.640;10.050;2023-04-01T15:27:40;6.47;;;6.47;;
23573;SDS011;11965;53.640;10.050;2023-04-01T15:30:23;6.89;;;6.86;;
23573;SDS011;11965;53.640;10.050;2023-04-01T15:33:06;7.19;;;7.18;;
23573;SDS011;11965;53.640;10.050;2023-04-01T15:35:46;7.17;;;7.17;;
23573;SDS011;11965;53.640;10.050;2023-04-01T15:38:30;7.03;;;7.03;;
23573;SDS011;11965;53.640;10.050;2023-04-01T15:41:07;7.01;;;7.01;;
23573;SDS011;11965;53.640;10.050;2023-04-01T15:43:42;7.61;;;7.61;;
23573;SDS011;11965;53.640;10.050;2023-04-01T15:46:29;7.34;;;7.34;;
23573;SDS011;11965;53.640;10.050;2023-04-01T15:49:14;7.15;;;7.15;;
23573;SDS011;11965;53.640;10.050;2023-04-01T15:51:56;7.91;;;7.91;;
23573;SDS011;11965;53.640;10.050;2023-04-01T15:57:25;7.65;;;7.65;;
23573;SDS011;11965;53.640;10.050;2023-04-01T16:00:15;8.19;;;8.18;;
23573;SDS011;11965;53.640;10.050;2023-04-01T16:02:53;7.82;;;7.82;;
23573;SDS011;11965;53.640;10.050;2023-04-01T16:05:58;8.41;;;8.38;;
23573;SDS011;11965;53.640;10.050;2023-04-01T16:08:49;8.10;;;8.08;;
23573;SDS011;11965;53.640;10.050;2023-04-01T16:11:37;7.41;;;7.36;;
23573;SDS011;11965;53.640;10.050;2023-04-01T16:14:16;7.22;;;7.21;;
23573;SDS011;11965;53.640;10.050;2023-04-01T16:16:59;7.75;;;7.75;;
23573;SDS011;11965;53.640;10.050;2023-04-01T16:19:41;7.44;;;7.44;;
23573;SDS011;11965;53.640;10.050;2023-04-01T16:22:20;7.59;;;7.59;;
23573;SDS011;11965;53.640;10.050;2023-04-01T16:24:56;7.49;;;7.49;;
23573;SDS011;11965;53.640;10.050;2023-04-01T16:27:42;7.53;;;7.53;;
23573;SDS011;11965;53.640;10.050;2023-04-01T16:30:23;8.19;;;8.19;;
23573;SDS011;11965;53.640;10.050;2023-04-01T16:33:01;7.79;;;7.79;;
23573;SDS011;11965;53.640;10.050;2023-04-01T16:35:40;8.02;;;8.02;;
23573;SDS011;11965;53.640;10.050;2023-04-01T16:38:18;7.96;;;7.96;;
23573;SDS011;11965;53.640;10.050;2023-04-01T16:40:59;7.31;;;7.31;;
23573;SDS011;11965;53.640;10.050;2023-04-01T16:43:38;7.70;;;7.70;;
23573;SDS011;11965;53.640;10.050;2023-04-01T16:46:26;7.25;;;7.25;;
23573;SDS011;11965;53.640;10.050;2023-04-01T16:49:03;7.32;;;7.32;;
23573;SDS011;11965;53.640;10.050;2023-04-01T16:51:44;7.52;;;7.52;;
23573;SDS011;11965;53.640;10.050;2023-04-01T16:54:28;7.28;;;7.28;;
23573;SDS011;11965;53.640;10.050;2023-04-01T16:57:03;6.69;;;6.69;;
23573;SDS011;11965;53.640;10.050;2023-04-01T16:59:45;6.25;;;6.25;;
23573;SDS011;11965;53.640;10.050;2023-04-01T17:02:20;6.41;;;6.41;;
23573;SDS011;11965;53.640;10.050;2023-04-01T17:04:57;6.38;;;6.38;;
23573;SDS011;11965;53.640;10.050;2023-04-01T17:07:29;6.20;;;6.20;;
23573;SDS011;11965;53.640;10.050;2023-04-01T17:10:17;5.97;;;5.97;;
23573;SDS011;11965;53.640;10.050;2023-04-01T17:15:51;6.00;;;6.00;;
23573;SDS011;11965;53.640;10.050;2023-04-01T17:18:33;5.76;;;5.76;;
23573;SDS011;11965;53.640;10.050;2023-04-01T17:21:10;5.24;;;5.24;;